Terminal Aerodrome Forecast
Issued by NWS

Home | Current Version | Previous Version | Text Only | Print | Product List | Glossary On
Versions: 1 2 3 4 5 6 7 8 9 10 11 12 13 14 15 16 17 18 19 20 21 22 23 24 25 26
000
FTUS41 KCTP 291806 RRA
TAFUNV
TAF
KUNV 291806Z 2918/3018 21004KT P6SM VCSH BKN050
     FM292100 21002KT P6SM VCSH SCT050 OVC100
     FM300200 21002KT P6SM -RA OVC050
     FM301300 25003KT P6SM OVC100=

USA.gov is the U.S. government's official web portal to all federal, state and local government web resources and services.